Swinomish — WC5223 — position and weather

sailwx.info

Track history (hours):
 
Tides and Currents Weather Stations Pressure Air Temp Water Temp Dewpoint Dewpoint Depression Visibility Wind Speed Wind Dir Waves Ship Positions

Swinomish

Owner: DUNLAP TOWING CO, LA CONNER, WA. More information available from US FCC via Universal Licensing System and Coast Guard Vessel Documentation Center.

Last reported at 2017-Apr-29 17:30 UTC. Time now 2017-Apr-29 17:36 UTC.
Position N 47°18' W 122°29'.

Length 15 m; draft 3.5 m.

Type: Tug. MMSI: 366972050.

Date/timePositionNaut miles runAvg speedWind from/ knotsBaromVisibWave heightAir tempDewpointWater temp
2017-Apr-29 17:30N 47°18' W 122°29'0 0.3
2017-Apr-29 17:00N 47°18' W 122°29'1 1.0
2017-Apr-29 16:30N 47°18' W 122°29'0 1.0
2017-Apr-29 16:00N 47°17' W 122°28'0 0.5
2017-Apr-29 15:30N 47°17' W 122°28'0 0.7
2017-Apr-29 15:00N 47°17' W 122°28'1 0.7
2017-Apr-29 14:00N 47°18' W 122°29'0 0.6
2017-Apr-29 13:30N 47°18' W 122°29'1 2.0
2017-Apr-29 13:00N 47°19' W 122°29'1 2.1
2017-Apr-29 12:30N 47°20' W 122°28'1 2.5
2017-Apr-29 12:00N 47°21' W 122°27'1 2.3
2017-Apr-29 11:30N 47°22' W 122°26'1 2.2
2017-Apr-29 11:00N 47°22' W 122°24'1 2.1
2017-Apr-29 10:30N 47°23' W 122°23'1 1.9
2017-Apr-29 10:00N 47°24' W 122°22'1 2.0
2017-Apr-29 09:30N 47°24' W 122°23'1 1.9
2017-Apr-29 09:00N 47°25' W 122°24'1 2.0
2017-Apr-29 08:30N 47°26' W 122°25'1 1.9
2017-Apr-29 08:00N 47°27' W 122°25'1 1.6
2017-Apr-29 07:30N 47°27' W 122°26'1 1.5
2017-Apr-29 07:00N 47°28' W 122°26'1 1.3
2017-Apr-29 06:30N 47°29' W 122°26'1 1.4
2017-Apr-29 06:00N 47°29' W 122°26'1 1.6
2017-Apr-29 05:30N 47°30' W 122°27'1 1.7
2017-Apr-29 05:00N 47°31' W 122°27'1 1.9
2017-Apr-29 04:30N 47°32' W 122°28'1 2.2
2017-Apr-29 04:00N 47°33' W 122°28'1 2.3
2017-Apr-29 03:30N 47°34' W 122°28'1 2.5
2017-Apr-29 03:00N 47°35' W 122°28'1 2.5
2017-Apr-29 02:30N 47°37' W 122°29'1 2.5
2017-Apr-29 02:00N 47°38' W 122°29'1 2.6
2017-Apr-29 01:30N 47°39' W 122°29'1 2.4
2017-Apr-29 01:00N 47°40' W 122°29'1 2.6
2017-Apr-29 00:30N 47°42' W 122°29'1 2.4
2017-Apr-29 00:00N 47°43' W 122°28'1 2.5
2017-Apr-28 23:30N 47°44' W 122°28'1 2.9
2017-Apr-28 23:00N 47°45' W 122°27'1 2.6
2017-Apr-28 22:30N 47°47' W 122°27'1 2.5
2017-Apr-28 22:00N 47°48' W 122°26'1 2.6
2017-Apr-28 21:30N 47°49' W 122°25'1 2.4
2017-Apr-28 21:00N 47°50' W 122°24'1 2.3
2017-Apr-28 20:30N 47°51' W 122°23'1 2.6
2017-Apr-28 20:00N 47°52' W 122°22'1 2.9
2017-Apr-28 19:30N 47°53' W 122°21'2 3.1
2017-Apr-28 19:00N 47°55' W 122°20'2 3.2
2017-Apr-28 18:30N 47°56' W 122°20'1 2.7
2017-Apr-28 18:00N 47°58' W 122°20'1 2.4
2017-Apr-28 17:30N 47°59' W 122°20'1 2.6
2017-Apr-28 17:00N 48°00' W 122°21'2 3.3
2017-Apr-28 16:29N 48°02' W 122°22'2 3.2
2017-Apr-28 15:55N 48°03' W 122°24'1 3.1
2017-Apr-28 15:29N 48°04' W 122°25'1 2.9
2017-Apr-28 15:00N 48°05' W 122°27'11 2.3
2017-Apr-28 10:09N 48°15' W 122°32'1 2.2
2017-Apr-28 09:47N 48°16' W 122°32'1 2.1
2017-Apr-28 09:30N 48°17' W 122°31'1 1.9
2017-Apr-28 08:59N 48°17' W 122°30'8 0.2
2017-Apr-26 20:15N 48°25' W 122°35'0 0.0
2017-Apr-26 08:14N 48°25' W 122°35'0 0.0
2017-Apr-26 07:16N 48°25' W 122°35'0 0.0
2017-Apr-26 01:16N 48°25' W 122°35'2 0.2
2017-Apr-25 17:46N 48°25' W 122°37'0 1.4
2017-Apr-25 17:28N 48°25' W 122°37'1 2.0
2017-Apr-25 17:00N 48°24' W 122°39'1 1.1
2017-Apr-25 16:30N 48°24' W 122°40'0 0.4
2017-Apr-25 16:00N 48°25' W 122°40'0 0.8
2017-Apr-25 15:30N 48°25' W 122°40'1 1.4
2017-Apr-25 14:59N 48°25' W 122°41'3 2.6
2017-Apr-25 14:00N 48°27' W 122°43'1 2.9
2017-Apr-25 13:30N 48°29' W 122°44'1 2.2
2017-Apr-25 13:00N 48°30' W 122°44'1 1.5
2017-Apr-25 12:30N 48°30' W 122°45'1 1.1
2017-Apr-25 12:00N 48°31' W 122°45'0 0.9
2017-Apr-25 11:30N 48°31' W 122°46'1 1.4
2017-Apr-25 11:00N 48°31' W 122°47'1 1.7
2017-Apr-25 10:30N 48°32' W 122°48'0 0.8
2017-Apr-25 10:00N 48°32' W 122°49'0 0.7
2017-Apr-25 09:30N 48°32' W 122°49'1 1.1
2017-Apr-25 09:00N 48°32' W 122°50'1 1.1
2017-Apr-25 08:30N 48°33' W 122°50'1 1.1
2017-Apr-25 08:00N 48°33' W 122°50'0 0.5
2017-Apr-25 07:30N 48°33' W 122°50'0 0.9
2017-Apr-25 07:00N 48°33' W 122°50'0 0.7
2017-Apr-25 06:30N 48°32' W 122°50'0 0.9
2017-Apr-25 06:00N 48°32' W 122°50'1 1.1
2017-Apr-25 05:30N 48°32' W 122°50'1 1.2
2017-Apr-25 05:00N 48°33' W 122°50'1 1.2
2017-Apr-25 04:30N 48°33' W 122°51'1 1.3
2017-Apr-25 04:00N 48°34' W 122°51'1 1.3
2017-Apr-25 03:30N 48°35' W 122°52'1 1.4
2017-Apr-25 03:00N 48°35' W 122°53'1 1.1
2017-Apr-25 02:30N 48°35' W 122°54'1 2.1
2017-Apr-25 02:00N 48°35' W 122°55'1 1.8
2017-Apr-25 01:30N 48°35' W 122°57'1 1.7
2017-Apr-25 01:00N 48°36' W 122°58'1 1.5
2017-Apr-25 00:30N 48°36' W 122°59'1 1.5
2017-Apr-25 00:00N 48°35' W 122°60'1 1.2
2017-Apr-24 23:30N 48°36' W 123°01'1 1.1
2017-Apr-24 23:00N 48°36' W 123°00'0 0.1
2017-Apr-24 22:30N 48°36' W 123°00'0 0.0
2017-Apr-24 22:00N 48°36' W 123°00'0 0.0
2017-Apr-24 21:30N 48°36' W 123°00'0 0.0
2017-Apr-24 21:00N 48°36' W 123°00'0 0.0
2017-Apr-24 20:30N 48°36' W 123°00'0 0.1
2017-Apr-24 20:00N 48°36' W 123°00'0 0.2
2017-Apr-24 19:30N 48°36' W 123°01'0 0.0
2017-Apr-24 18:59N 48°36' W 123°01'0 0.0
2017-Apr-24 18:30N 48°36' W 123°01'0 0.0
2017-Apr-24 18:00N 48°36' W 123°01'0 0.0
2017-Apr-24 17:30N 48°36' W 123°01'0 0.0
2017-Apr-24 17:00N 48°36' W 123°01'0 0.0
2017-Apr-24 16:30N 48°36' W 123°01'0 0.0
2017-Apr-24 16:01N 48°36' W 123°01'0 0.2
2017-Apr-24 15:30N 48°36' W 123°00'1 1.1
2017-Apr-24 15:00N 48°36' W 123°01'1 1.6
2017-Apr-24 14:30N 48°37' W 123°02'2 2.2
2017-Apr-24 13:30N 48°39' W 123°01'1 2.7
2017-Apr-24 13:00N 48°40' W 123°00'1 2.3
2017-Apr-24 12:30N 48°41' W 122°59'1 2.0
2017-Apr-24 12:00N 48°42' W 122°59'1 1.8
2017-Apr-24 11:30N 48°43' W 122°59'1 1.6
2017-Apr-24 11:00N 48°44' W 122°59'1 1.3
2017-Apr-24 10:28N 48°44' W 123°00'1 1.7
2017-Apr-24 10:00N 48°44' W 123°02'1 2.2
2017-Apr-24 09:30N 48°44' W 123°03'2 3.0
2017-Apr-24 09:00N 48°44' W 123°05'1 2.6
2017-Apr-24 08:30N 48°44' W 123°07'1 2.1
2017-Apr-24 08:00N 48°44' W 123°09'1 1.7
2017-Apr-24 07:30N 48°45' W 123°10'1 1.7
2017-Apr-24 07:00N 48°45' W 123°11'1 1.4
2017-Apr-24 06:30N 48°46' W 123°11'1 1.5
2017-Apr-24 06:00N 48°46' W 123°12'1 1.4
2017-Apr-24 05:30N 48°47' W 123°13'0 0.9
2017-Apr-24 05:00N 48°47' W 123°13'1 1.0
2017-Apr-24 04:26N 48°47' W 123°14'0 0.9
2017-Apr-24 04:00N 48°48' W 123°15'0 0.0
2017-Apr-24 03:30N 48°48' W 123°15'0 0.1
2017-Apr-24 03:00N 48°48' W 123°15'0 0.0
2017-Apr-24 02:30N 48°48' W 123°15'0 0.0
2017-Apr-24 02:00N 48°48' W 123°15'0 0.1
2017-Apr-24 01:30N 48°47' W 123°15'0 0.1
2017-Apr-24 01:00N 48°47' W 123°15'0 0.0
2017-Apr-24 00:30N 48°47' W 123°15'0 0.0
2017-Apr-24 00:00N 48°47' W 123°15'0 0.0
2017-Apr-23 23:30N 48°47' W 123°15'0 0.1
2017-Apr-23 23:00N 48°47' W 123°14'0 0.0
2017-Apr-23 22:25N 48°47' W 123°14'0 0.0
2017-Apr-23 22:00N 48°47' W 123°14'0 0.0
2017-Apr-23 21:30N 48°47' W 123°14'0 0.0
2017-Apr-23 21:00N 48°47' W 123°14'0 0.1
2017-Apr-23 20:30N 48°47' W 123°14'0 0.3
2017-Apr-23 19:57N 48°48' W 123°15'1 1.3
2017-Apr-23 19:27N 48°48' W 123°15'1 1.3
2017-Apr-23 18:57N 48°49' W 123°16'1 1.5
2017-Apr-23 18:28N 48°49' W 123°17'1 1.0
2017-Apr-23 17:57N 48°49' W 123°17'0 0.7
2017-Apr-23 17:29N 48°49' W 123°18'0 0.8
2017-Apr-23 16:59N 48°49' W 123°18'1 1.2
2017-Apr-23 16:30N 48°50' W 123°19'1 2.0
2017-Apr-23 15:58N 48°50' W 123°21'1 2.4
2017-Apr-23 15:30N 48°51' W 123°22'1 2.1
2017-Apr-23 15:00N 48°51' W 123°24'1 1.5
2017-Apr-23 14:27N 48°52' W 123°25'2 1.8
2017-Apr-23 13:30N 48°53' W 123°27'1 1.8
2017-Apr-23 13:00N 48°53' W 123°28'1 1.7
2017-Apr-23 12:30N 48°54' W 123°28'0 0.8
2017-Apr-23 11:59N 48°54' W 123°28'0 0.4
2017-Apr-23 11:29N 48°54' W 123°28'0 0.5
2017-Apr-23 11:00N 48°54' W 123°28'0 0.5
2017-Apr-23 10:30N 48°54' W 123°28'0 0.8
2017-Apr-23 10:00N 48°54' W 123°29'0 0.6
2017-Apr-23 09:30N 48°55' W 123°29'0 0.6
2017-Apr-23 09:00N 48°55' W 123°29'0 0.4
2017-Apr-23 08:29N 48°55' W 123°29'0 0.5
2017-Apr-23 08:00N 48°55' W 123°30'0 0.5
2017-Apr-23 07:30N 48°55' W 123°30'0 0.5
2017-Apr-23 06:59N 48°55' W 123°30'0 0.8
2017-Apr-23 06:29N 48°56' W 123°31'0 0.7
2017-Apr-23 05:59N 48°56' W 123°31'0 0.7
2017-Apr-23 05:30N 48°56' W 123°32'1 1.1
2017-Apr-23 05:00N 48°56' W 123°32'1 1.7
2017-Apr-23 04:30N 48°57' W 123°33'1 1.7
2017-Apr-23 04:00N 48°58' W 123°34'1 1.6
2017-Apr-23 03:29N 48°58' W 123°35'1 2.1
2017-Apr-23 03:00N 48°59' W 123°35'1 2.0
2017-Apr-23 02:28N 49°00' W 123°36'1 1.5
2017-Apr-23 02:00N 49°01' W 123°37'0 1.0
2017-Apr-23 01:30N 49°01' W 123°37'0 0.9
2017-Apr-23 00:58N 49°02' W 123°38'1 1.2
2017-Apr-23 00:28N 49°02' W 123°38'1 1.1
2017-Apr-22 23:55N 49°02' W 123°39'1 1.0
2017-Apr-22 23:25N 49°03' W 123°40'0 0.9
2017-Apr-22 22:57N 49°03' W 123°40'0 0.8
2017-Apr-22 22:29N 49°03' W 123°40'1 1.0
2017-Apr-22 21:56N 49°04' W 123°40'0 1.1
2017-Apr-22 21:30N 49°04' W 123°41'1 1.3
2017-Apr-22 20:55N 49°05' W 123°41'1 1.5
2017-Apr-22 20:30N 49°05' W 123°42'1 1.6
2017-Apr-22 19:59N 49°06' W 123°43'1 1.1
2017-Apr-22 19:30N 49°07' W 123°43'0 0.8
2017-Apr-22 19:00N 49°06' W 123°43'510.8
2017-Apr-22 18:30N 49°01' W 123°43'510.1
2017-Apr-22 18:00N 48°56' W 123°43'0 0.7
2017-Apr-22 17:30N 48°56' W 123°43'0 0.0
2017-Apr-22 17:00N 48°56' W 123°43'0 0.0
2017-Apr-22 16:30N 48°56' W 123°43'0 0.0
2017-Apr-22 16:00N 48°56' W 123°43'1 1.7
2017-Apr-22 15:30N 48°56' W 123°43'611.2
2017-Apr-22 15:00N 49°02' W 123°44'5 8.8
2017-Apr-22 14:28N 49°07' W 123°43'0 0.2
2017-Apr-22 13:24N 49°07' W 123°43'0 0.0
2017-Apr-22 12:59N 49°07' W 123°43'0 0.0
2017-Apr-22 12:30N 49°07' W 123°43'0 0.0
2017-Apr-22 11:57N 49°07' W 123°43'7 9.7
2017-Apr-22 11:16N 49°00' W 123°44'311.3
2017-Apr-22 11:00N 48°57' W 123°43'2 3.3
2017-Apr-22 10:30N 48°56' W 123°43'0 0.0
2017-Apr-22 10:00N 48°56' W 123°43'2 3.1
2017-Apr-22 09:30N 48°57' W 123°43'611.7
2017-Apr-22 09:00N 49°03' W 123°44'4 7.4
2017-Apr-22 08:29N 49°07' W 123°43'0 0.1
2017-Apr-22 07:56N 49°07' W 123°43'0 0.7
2017-Apr-22 07:30N 49°06' W 123°43'1 1.7
2017-Apr-22 07:00N 49°06' W 123°42'1 1.5
2017-Apr-22 06:26N 49°05' W 123°42'1 1.4
2017-Apr-22 05:56N 49°05' W 123°41'1 1.3
2017-Apr-22 05:30N 49°04' W 123°41'1 1.5
2017-Apr-22 04:56N 49°03' W 123°40'1 1.3
2017-Apr-22 04:22N 49°03' W 123°39'0 1.0
2017-Apr-22 03:58N 49°02' W 123°39'1 1.7
2017-Apr-22 03:28N 49°03' W 123°40'1 1.8
2017-Apr-22 02:59N 49°04' W 123°40'1 1.8
2017-Apr-22 02:30N 49°05' W 123°41'1 1.9
2017-Apr-22 01:59N 49°05' W 123°42'1 1.9
2017-Apr-22 01:30N 49°06' W 123°42'1 1.0
2017-Apr-22 00:58N 49°07' W 123°42'0 0.5
2017-Apr-22 00:30N 49°07' W 123°43'0 0.3
2017-Apr-22 00:00N 49°07' W 123°43'0 0.1
2017-Apr-21 23:11N 49°07' W 123°43'0 0.8
2017-Apr-21 22:55N 49°06' W 123°43'1 2.1
2017-Apr-21 22:28N 49°05' W 123°43'1 2.1
2017-Apr-21 21:58N 49°05' W 123°45'1 2.4
2017-Apr-21 21:28N 49°06' W 123°46'1 2.2
2017-Apr-21 20:59N 49°07' W 123°47'1 2.1
2017-Apr-21 20:27N 49°08' W 123°48'1 1.9
2017-Apr-21 19:59N 49°08' W 123°49'0 0.5
2017-Apr-21 19:28N 49°08' W 123°50'1 2.9
2017-Apr-21 18:59N 49°07' W 123°48'3 6.7
2017-Apr-21 18:28N 49°07' W 123°43'0 0.1
2017-Apr-21 17:52N 49°07' W 123°43'0 0.1
2017-Apr-21 17:27N 49°07' W 123°43'0 0.0
2017-Apr-21 16:54N 49°07' W 123°43'0 0.0
2017-Apr-21 16:30N 49°07' W 123°43'0 0.0
2017-Apr-21 15:59N 49°07' W 123°43'0 0.0
2017-Apr-21 15:29N 49°07' W 123°43'0 0.0
2017-Apr-21 14:15N 49°07' W 123°43'0 0.2
2017-Apr-21 13:26N 49°07' W 123°43'0 0.4
2017-Apr-21 13:00N 49°07' W 123°43'0 0.0
2017-Apr-21 12:23N 49°07' W 123°43'0 0.1
2017-Apr-21 12:00N 49°07' W 123°43'0 0.0
2017-Apr-21 11:17N 49°07' W 123°43'0 0.0
2017-Apr-21 10:59N 49°07' W 123°43'0 0.0
2017-Apr-21 10:24N 49°07' W 123°43'0 0.0
2017-Apr-21 09:57N 49°07' W 123°43'0 0.0
2017-Apr-21 09:30N 49°07' W 123°43'0 0.0
2017-Apr-21 09:00N 49°07' W 123°43'0 0.0
2017-Apr-21 08:28N 49°07' W 123°43'0 0.4
2017-Apr-21 07:57N 49°07' W 123°43'0 0.9
2017-Apr-21 07:24N 49°07' W 123°43'2 3.6
2017-Apr-21 06:59N 49°05' W 123°42'2 3.5
2017-Apr-21 06:29N 49°04' W 123°40'2 3.6
2017-Apr-21 05:55N 49°02' W 123°39'2 3.5
2017-Apr-21 05:28N 49°01' W 123°37'2 3.6
2017-Apr-21 04:59N 48°59' W 123°36'2 3.8
2017-Apr-21 04:30N 48°58' W 123°34'3 4.0
2017-Apr-21 03:52N 48°56' W 123°31'1 3.8
2017-Apr-21 03:29N 48°55' W 123°30'2 3.7
2017-Apr-21 02:59N 48°54' W 123°28'2 3.7
2017-Apr-21 02:30N 48°53' W 123°26'2 3.6
2017-Apr-21 02:00N 48°52' W 123°24'2 3.2
2017-Apr-21 01:26N 48°50' W 123°22'1 3.3
2017-Apr-21 01:00N 48°50' W 123°20'2 4.3
2017-Apr-21 00:30N 48°49' W 123°17'2 3.8
2017-Apr-21 00:00N 48°48' W 123°14'2 3.7
2017-Apr-20 23:30N 48°46' W 123°12'2 3.5
2017-Apr-20 23:00N 48°45' W 123°10'2 3.1
2017-Apr-20 22:30N 48°44' W 123°09'2 4.0
2017-Apr-20 22:00N 48°43' W 123°06'2 3.6
2017-Apr-20 21:30N 48°42' W 123°05'2 3.8
2017-Apr-20 21:00N 48°40' W 123°03'2 3.4
2017-Apr-20 20:30N 48°38' W 123°02'2 3.5
2017-Apr-20 20:00N 48°37' W 123°02'2 3.5
2017-Apr-20 19:30N 48°35' W 122°60'2 3.5
2017-Apr-20 19:00N 48°36' W 122°57'2 3.3
2017-Apr-20 18:30N 48°35' W 122°55'2 3.6
2017-Apr-20 18:00N 48°35' W 122°52'2 3.6
2017-Apr-20 17:30N 48°33' W 122°51'2 3.4
2017-Apr-20 17:00N 48°32' W 122°49'1 3.0
2017-Apr-20 16:30N 48°32' W 122°47'2 3.1
2017-Apr-20 16:00N 48°31' W 122°45'1 3.0
2017-Apr-20 15:30N 48°30' W 122°44'1 2.8
2017-Apr-20 15:00N 48°28' W 122°43'2 3.6
2017-Apr-20 14:29N 48°26' W 122°43'3 3.5
2017-Apr-20 13:30N 48°24' W 122°39'1 1.8
2017-Apr-20 13:00N 48°24' W 122°37'1 2.2
2017-Apr-20 12:30N 48°25' W 122°36'1 0.3
2017-Apr-20 09:34N 48°25' W 122°35'0 0.0
2017-Apr-20 09:30N 48°25' W 122°35'2 0.7
2017-Apr-20 06:11N 48°23' W 122°35'2 4.2
2017-Apr-20 05:41N 48°21' W 122°33'1 4.2
2017-Apr-20 05:28N 48°20' W 122°32'2 4.3
2017-Apr-20 04:58N 48°19' W 122°30'2 3.9
2017-Apr-20 04:29N 48°17' W 122°30'8 3.4
2017-Apr-20 02:16N 48°10' W 122°33'1 4.1
2017-Apr-20 02:00N 48°09' W 122°32'5 4.0
2017-Apr-20 00:51N 48°05' W 122°27'2 4.0
2017-Apr-20 00:23N 48°04' W 122°25'2 4.1
2017-Apr-19 23:59N 48°03' W 122°23'2 3.9
2017-Apr-19 23:29N 48°02' W 122°21'2 4.0
2017-Apr-19 22:59N 48°01' W 122°18'2 3.8
2017-Apr-19 22:30N 47°60' W 122°16'2 3.8
2017-Apr-19 22:00N 47°59' W 122°14'1 1.1
2017-Apr-19 21:29N 47°59' W 122°13'0 0.1
2017-Apr-19 21:00N 47°59' W 122°13'0 0.2
2017-Apr-19 20:27N 47°59' W 122°13'0 0.0
2017-Apr-19 20:00N 47°59' W 122°13'0 0.0
2017-Apr-19 19:30N 47°59' W 122°13'0 0.0
2017-Apr-19 19:00N 47°59' W 122°13'0 0.0
2017-Apr-19 18:27N 47°59' W 122°13'1 1.7
2017-Apr-19 18:00N 47°59' W 122°14'  
Track history (hours):
 
Tides and Currents Weather Stations Pressure Air Temp Water Temp Dewpoint Dewpoint Depression Visibility Wind Speed Wind Dir Waves Ship Positions

Swinomish

Owner: DUNLAP TOWING CO, LA CONNER, WA. More information available from US FCC via Universal Licensing System and Coast Guard Vessel Documentation Center.

Last reported at 2017-Apr-29 17:30 UTC. Time now 2017-Apr-29 17:36 UTC.
Position N 47°18' W 122°29'.

Length 15 m; draft 3.5 m.

Type: Tug. MMSI: 366972050.

Date/timePositionNaut miles runAvg speedWind from/ knotsBaromVisibWave heightAir tempDewpointWater temp
2017-Apr-29 17:30N 47°18' W 122°29'0 0.3
2017-Apr-29 17:00N 47°18' W 122°29'1 1.0
2017-Apr-29 16:30N 47°18' W 122°29'0 1.0
2017-Apr-29 16:00N 47°17' W 122°28'0 0.5
2017-Apr-29 15:30N 47°17' W 122°28'0 0.7
2017-Apr-29 15:00N 47°17' W 122°28'1 0.7
2017-Apr-29 14:00N 47°18' W 122°29'0 0.6
2017-Apr-29 13:30N 47°18' W 122°29'1 2.0
2017-Apr-29 13:00N 47°19' W 122°29'1 2.1
2017-Apr-29 12:30N 47°20' W 122°28'1 2.5
2017-Apr-29 12:00N 47°21' W 122°27'1 2.3
2017-Apr-29 11:30N 47°22' W 122°26'1 2.2
2017-Apr-29 11:00N 47°22' W 122°24'1 2.1
2017-Apr-29 10:30N 47°23' W 122°23'1 1.9
2017-Apr-29 10:00N 47°24' W 122°22'1 2.0
2017-Apr-29 09:30N 47°24' W 122°23'1 1.9
2017-Apr-29 09:00N 47°25' W 122°24'1 2.0
2017-Apr-29 08:30N 47°26' W 122°25'1 1.9
2017-Apr-29 08:00N 47°27' W 122°25'1 1.6
2017-Apr-29 07:30N 47°27' W 122°26'1 1.5
2017-Apr-29 07:00N 47°28' W 122°26'1 1.3
2017-Apr-29 06:30N 47°29' W 122°26'1 1.4
2017-Apr-29 06:00N 47°29' W 122°26'1 1.6
2017-Apr-29 05:30N 47°30' W 122°27'1 1.7
2017-Apr-29 05:00N 47°31' W 122°27'1 1.9
2017-Apr-29 04:30N 47°32' W 122°28'1 2.2
2017-Apr-29 04:00N 47°33' W 122°28'1 2.3
2017-Apr-29 03:30N 47°34' W 122°28'1 2.5
2017-Apr-29 03:00N 47°35' W 122°28'1 2.5
2017-Apr-29 02:30N 47°37' W 122°29'1 2.5
2017-Apr-29 02:00N 47°38' W 122°29'1 2.6
2017-Apr-29 01:30N 47°39' W 122°29'1 2.4
2017-Apr-29 01:00N 47°40' W 122°29'1 2.6
2017-Apr-29 00:30N 47°42' W 122°29'1 2.4
2017-Apr-29 00:00N 47°43' W 122°28'1 2.5
2017-Apr-28 23:30N 47°44' W 122°28'1 2.9
2017-Apr-28 23:00N 47°45' W 122°27'1 2.6
2017-Apr-28 22:30N 47°47' W 122°27'1 2.5
2017-Apr-28 22:00N 47°48' W 122°26'1 2.6
2017-Apr-28 21:30N 47°49' W 122°25'1 2.4
2017-Apr-28 21:00N 47°50' W 122°24'1 2.3
2017-Apr-28 20:30N 47°51' W 122°23'1 2.6
2017-Apr-28 20:00N 47°52' W 122°22'1 2.9
2017-Apr-28 19:30N 47°53' W 122°21'2 3.1
2017-Apr-28 19:00N 47°55' W 122°20'2 3.2
2017-Apr-28 18:30N 47°56' W 122°20'1 2.7
2017-Apr-28 18:00N 47°58' W 122°20'1 2.4
2017-Apr-28 17:30N 47°59' W 122°20'1 2.6
2017-Apr-28 17:00N 48°00' W 122°21'2 3.3
2017-Apr-28 16:29N 48°02' W 122°22'2 3.2
2017-Apr-28 15:55N 48°03' W 122°24'1 3.1
2017-Apr-28 15:29N 48°04' W 122°25'1 2.9
2017-Apr-28 15:00N 48°05' W 122°27'11 2.3
2017-Apr-28 10:09N 48°15' W 122°32'1 2.2
2017-Apr-28 09:47N 48°16' W 122°32'1 2.1
2017-Apr-28 09:30N 48°17' W 122°31'1 1.9
2017-Apr-28 08:59N 48°17' W 122°30'8 0.2
2017-Apr-26 20:15N 48°25' W 122°35'0 0.0
2017-Apr-26 08:14N 48°25' W 122°35'0 0.0
2017-Apr-26 07:16N 48°25' W 122°35'0 0.0
2017-Apr-26 01:16N 48°25' W 122°35'2 0.2
2017-Apr-25 17:46N 48°25' W 122°37'0 1.4
2017-Apr-25 17:28N 48°25' W 122°37'1 2.0
2017-Apr-25 17:00N 48°24' W 122°39'1 1.1
2017-Apr-25 16:30N 48°24' W 122°40'0 0.4
2017-Apr-25 16:00N 48°25' W 122°40'0 0.8
2017-Apr-25 15:30N 48°25' W 122°40'1 1.4
2017-Apr-25 14:59N 48°25' W 122°41'3 2.6
2017-Apr-25 14:00N 48°27' W 122°43'1 2.9
2017-Apr-25 13:30N 48°29' W 122°44'1 2.2
2017-Apr-25 13:00N 48°30' W 122°44'1 1.5
2017-Apr-25 12:30N 48°30' W 122°45'1 1.1
2017-Apr-25 12:00N 48°31' W 122°45'0 0.9
2017-Apr-25 11:30N 48°31' W 122°46'1 1.4
2017-Apr-25 11:00N 48°31' W 122°47'1 1.7
2017-Apr-25 10:30N 48°32' W 122°48'0 0.8
2017-Apr-25 10:00N 48°32' W 122°49'0 0.7
2017-Apr-25 09:30N 48°32' W 122°49'1 1.1
2017-Apr-25 09:00N 48°32' W 122°50'1 1.1
2017-Apr-25 08:30N 48°33' W 122°50'1 1.1
2017-Apr-25 08:00N 48°33' W 122°50'0 0.5
2017-Apr-25 07:30N 48°33' W 122°50'0 0.9
2017-Apr-25 07:00N 48°33' W 122°50'0 0.7
2017-Apr-25 06:30N 48°32' W 122°50'0 0.9
2017-Apr-25 06:00N 48°32' W 122°50'1 1.1
2017-Apr-25 05:30N 48°32' W 122°50'1 1.2
2017-Apr-25 05:00N 48°33' W 122°50'1 1.2
2017-Apr-25 04:30N 48°33' W 122°51'1 1.3
2017-Apr-25 04:00N 48°34' W 122°51'1 1.3
2017-Apr-25 03:30N 48°35' W 122°52'1 1.4
2017-Apr-25 03:00N 48°35' W 122°53'1 1.1
2017-Apr-25 02:30N 48°35' W 122°54'1 2.1
2017-Apr-25 02:00N 48°35' W 122°55'1 1.8
2017-Apr-25 01:30N 48°35' W 122°57'1 1.7
2017-Apr-25 01:00N 48°36' W 122°58'1 1.5
2017-Apr-25 00:30N 48°36' W 122°59'1 1.5
2017-Apr-25 00:00N 48°35' W 122°60'1 1.2
2017-Apr-24 23:30N 48°36' W 123°01'1 1.1
2017-Apr-24 23:00N 48°36' W 123°00'0 0.1
2017-Apr-24 22:30N 48°36' W 123°00'0 0.0
2017-Apr-24 22:00N 48°36' W 123°00'0 0.0
2017-Apr-24 21:30N 48°36' W 123°00'0 0.0
2017-Apr-24 21:00N 48°36' W 123°00'0 0.0
2017-Apr-24 20:30N 48°36' W 123°00'0 0.1
2017-Apr-24 20:00N 48°36' W 123°00'0 0.2
2017-Apr-24 19:30N 48°36' W 123°01'0 0.0
2017-Apr-24 18:59N 48°36' W 123°01'0 0.0
2017-Apr-24 18:30N 48°36' W 123°01'0 0.0
2017-Apr-24 18:00N 48°36' W 123°01'0 0.0
2017-Apr-24 17:30N 48°36' W 123°01'0 0.0
2017-Apr-24 17:00N 48°36' W 123°01'0 0.0
2017-Apr-24 16:30N 48°36' W 123°01'0 0.0
2017-Apr-24 16:01N 48°36' W 123°01'0 0.2
2017-Apr-24 15:30N 48°36' W 123°00'1 1.1
2017-Apr-24 15:00N 48°36' W 123°01'1 1.6
2017-Apr-24 14:30N 48°37' W 123°02'2 2.2
2017-Apr-24 13:30N 48°39' W 123°01'1 2.7
2017-Apr-24 13:00N 48°40' W 123°00'1 2.3
2017-Apr-24 12:30N 48°41' W 122°59'1 2.0
2017-Apr-24 12:00N 48°42' W 122°59'1 1.8
2017-Apr-24 11:30N 48°43' W 122°59'1 1.6
2017-Apr-24 11:00N 48°44' W 122°59'1 1.3
2017-Apr-24 10:28N 48°44' W 123°00'1 1.7
2017-Apr-24 10:00N 48°44' W 123°02'1 2.2
2017-Apr-24 09:30N 48°44' W 123°03'2 3.0
2017-Apr-24 09:00N 48°44' W 123°05'1 2.6
2017-Apr-24 08:30N 48°44' W 123°07'1 2.1
2017-Apr-24 08:00N 48°44' W 123°09'1 1.7
2017-Apr-24 07:30N 48°45' W 123°10'1 1.7
2017-Apr-24 07:00N 48°45' W 123°11'1 1.4
2017-Apr-24 06:30N 48°46' W 123°11'1 1.5
2017-Apr-24 06:00N 48°46' W 123°12'1 1.4
2017-Apr-24 05:30N 48°47' W 123°13'0 0.9
2017-Apr-24 05:00N 48°47' W 123°13'1 1.0
2017-Apr-24 04:26N 48°47' W 123°14'0 0.9
2017-Apr-24 04:00N 48°48' W 123°15'0 0.0
2017-Apr-24 03:30N 48°48' W 123°15'0 0.1
2017-Apr-24 03:00N 48°48' W 123°15'0 0.0
2017-Apr-24 02:30N 48°48' W 123°15'0 0.0
2017-Apr-24 02:00N 48°48' W 123°15'0 0.1
2017-Apr-24 01:30N 48°47' W 123°15'0 0.1
2017-Apr-24 01:00N 48°47' W 123°15'0 0.0
2017-Apr-24 00:30N 48°47' W 123°15'0 0.0
2017-Apr-24 00:00N 48°47' W 123°15'0 0.0
2017-Apr-23 23:30N 48°47' W 123°15'0 0.1
2017-Apr-23 23:00N 48°47' W 123°14'0 0.0
2017-Apr-23 22:25N 48°47' W 123°14'0 0.0
2017-Apr-23 22:00N 48°47' W 123°14'0 0.0
2017-Apr-23 21:30N 48°47' W 123°14'0 0.0
2017-Apr-23 21:00N 48°47' W 123°14'0 0.1
2017-Apr-23 20:30N 48°47' W 123°14'0 0.3
2017-Apr-23 19:57N 48°48' W 123°15'1 1.3
2017-Apr-23 19:27N 48°48' W 123°15'1 1.3
2017-Apr-23 18:57N 48°49' W 123°16'1 1.5
2017-Apr-23 18:28N 48°49' W 123°17'1 1.0
2017-Apr-23 17:57N 48°49' W 123°17'0 0.7
2017-Apr-23 17:29N 48°49' W 123°18'0 0.8
2017-Apr-23 16:59N 48°49' W 123°18'1 1.2
2017-Apr-23 16:30N 48°50' W 123°19'1 2.0
2017-Apr-23 15:58N 48°50' W 123°21'1 2.4
2017-Apr-23 15:30N 48°51' W 123°22'1 2.1
2017-Apr-23 15:00N 48°51' W 123°24'1 1.5
2017-Apr-23 14:27N 48°52' W 123°25'2 1.8
2017-Apr-23 13:30N 48°53' W 123°27'1 1.8
2017-Apr-23 13:00N 48°53' W 123°28'1 1.7
2017-Apr-23 12:30N 48°54' W 123°28'0 0.8
2017-Apr-23 11:59N 48°54' W 123°28'0 0.4
2017-Apr-23 11:29N 48°54' W 123°28'0 0.5
2017-Apr-23 11:00N 48°54' W 123°28'0 0.5
2017-Apr-23 10:30N 48°54' W 123°28'0 0.8
2017-Apr-23 10:00N 48°54' W 123°29'0 0.6
2017-Apr-23 09:30N 48°55' W 123°29'0 0.6
2017-Apr-23 09:00N 48°55' W 123°29'0 0.4
2017-Apr-23 08:29N 48°55' W 123°29'0 0.5
2017-Apr-23 08:00N 48°55' W 123°30'0 0.5
2017-Apr-23 07:30N 48°55' W 123°30'0 0.5
2017-Apr-23 06:59N 48°55' W 123°30'0 0.8
2017-Apr-23 06:29N 48°56' W 123°31'0 0.7
2017-Apr-23 05:59N 48°56' W 123°31'0 0.7
2017-Apr-23 05:30N 48°56' W 123°32'1 1.1
2017-Apr-23 05:00N 48°56' W 123°32'1 1.7
2017-Apr-23 04:30N 48°57' W 123°33'1 1.7
2017-Apr-23 04:00N 48°58' W 123°34'1 1.6
2017-Apr-23 03:29N 48°58' W 123°35'1 2.1
2017-Apr-23 03:00N 48°59' W 123°35'1 2.0
2017-Apr-23 02:28N 49°00' W 123°36'1 1.5
2017-Apr-23 02:00N 49°01' W 123°37'0 1.0
2017-Apr-23 01:30N 49°01' W 123°37'0 0.9
2017-Apr-23 00:58N 49°02' W 123°38'1 1.2
2017-Apr-23 00:28N 49°02' W 123°38'1 1.1
2017-Apr-22 23:55N 49°02' W 123°39'1 1.0
2017-Apr-22 23:25N 49°03' W 123°40'0 0.9
2017-Apr-22 22:57N 49°03' W 123°40'0 0.8
2017-Apr-22 22:29N 49°03' W 123°40'1 1.0
2017-Apr-22 21:56N 49°04' W 123°40'0 1.1
2017-Apr-22 21:30N 49°04' W 123°41'1 1.3
2017-Apr-22 20:55N 49°05' W 123°41'1 1.5
2017-Apr-22 20:30N 49°05' W 123°42'1 1.6
2017-Apr-22 19:59N 49°06' W 123°43'1 1.1
2017-Apr-22 19:30N 49°07' W 123°43'0 0.8
2017-Apr-22 19:00N 49°06' W 123°43'510.8
2017-Apr-22 18:30N 49°01' W 123°43'510.1
2017-Apr-22 18:00N 48°56' W 123°43'0 0.7
2017-Apr-22 17:30N 48°56' W 123°43'0 0.0
2017-Apr-22 17:00N 48°56' W 123°43'0 0.0
2017-Apr-22 16:30N 48°56' W 123°43'0 0.0
2017-Apr-22 16:00N 48°56' W 123°43'1 1.7
2017-Apr-22 15:30N 48°56' W 123°43'611.2
2017-Apr-22 15:00N 49°02' W 123°44'5 8.8
2017-Apr-22 14:28N 49°07' W 123°43'0 0.2
2017-Apr-22 13:24N 49°07' W 123°43'0 0.0
2017-Apr-22 12:59N 49°07' W 123°43'0 0.0
2017-Apr-22 12:30N 49°07' W 123°43'0 0.0
2017-Apr-22 11:57N 49°07' W 123°43'7 9.7
2017-Apr-22 11:16N 49°00' W 123°44'311.3
2017-Apr-22 11:00N 48°57' W 123°43'2 3.3
2017-Apr-22 10:30N 48°56' W 123°43'0 0.0
2017-Apr-22 10:00N 48°56' W 123°43'2 3.1
2017-Apr-22 09:30N 48°57' W 123°43'611.7
2017-Apr-22 09:00N 49°03' W 123°44'4 7.4
2017-Apr-22 08:29N 49°07' W 123°43'0 0.1
2017-Apr-22 07:56N 49°07' W 123°43'0 0.7
2017-Apr-22 07:30N 49°06' W 123°43'1 1.7
2017-Apr-22 07:00N 49°06' W 123°42'1 1.5
2017-Apr-22 06:26N 49°05' W 123°42'1 1.4
2017-Apr-22 05:56N 49°05' W 123°41'1 1.3
2017-Apr-22 05:30N 49°04' W 123°41'1 1.5
2017-Apr-22 04:56N 49°03' W 123°40'1 1.3
2017-Apr-22 04:22N 49°03' W 123°39'0 1.0
2017-Apr-22 03:58N 49°02' W 123°39'1 1.7
2017-Apr-22 03:28N 49°03' W 123°40'1 1.8
2017-Apr-22 02:59N 49°04' W 123°40'1 1.8
2017-Apr-22 02:30N 49°05' W 123°41'1 1.9
2017-Apr-22 01:59N 49°05' W 123°42'1 1.9
2017-Apr-22 01:30N 49°06' W 123°42'1 1.0
2017-Apr-22 00:58N 49°07' W 123°42'0 0.5
2017-Apr-22 00:30N 49°07' W 123°43'0 0.3
2017-Apr-22 00:00N 49°07' W 123°43'0 0.1
2017-Apr-21 23:11N 49°07' W 123°43'0 0.8
2017-Apr-21 22:55N 49°06' W 123°43'1 2.1
2017-Apr-21 22:28N 49°05' W 123°43'1 2.1
2017-Apr-21 21:58N 49°05' W 123°45'1 2.4
2017-Apr-21 21:28N 49°06' W 123°46'1 2.2
2017-Apr-21 20:59N 49°07' W 123°47'1 2.1
2017-Apr-21 20:27N 49°08' W 123°48'1 1.9
2017-Apr-21 19:59N 49°08' W 123°49'0 0.5
2017-Apr-21 19:28N 49°08' W 123°50'1 2.9
2017-Apr-21 18:59N 49°07' W 123°48'3 6.7
2017-Apr-21 18:28N 49°07' W 123°43'0 0.1
2017-Apr-21 17:52N 49°07' W 123°43'0 0.1
2017-Apr-21 17:27N 49°07' W 123°43'0 0.0
2017-Apr-21 16:54N 49°07' W 123°43'0 0.0
2017-Apr-21 16:30N 49°07' W 123°43'0 0.0
2017-Apr-21 15:59N 49°07' W 123°43'0 0.0
2017-Apr-21 15:29N 49°07' W 123°43'0 0.0
2017-Apr-21 14:15N 49°07' W 123°43'0 0.2
2017-Apr-21 13:26N 49°07' W 123°43'0 0.4
2017-Apr-21 13:00N 49°07' W 123°43'0 0.0
2017-Apr-21 12:23N 49°07' W 123°43'0 0.1
2017-Apr-21 12:00N 49°07' W 123°43'0 0.0
2017-Apr-21 11:17N 49°07' W 123°43'0 0.0
2017-Apr-21 10:59N 49°07' W 123°43'0 0.0
2017-Apr-21 10:24N 49°07' W 123°43'0 0.0
2017-Apr-21 09:57N 49°07' W 123°43'0 0.0
2017-Apr-21 09:30N 49°07' W 123°43'0 0.0
2017-Apr-21 09:00N 49°07' W 123°43'0 0.0
2017-Apr-21 08:28N 49°07' W 123°43'0 0.4
2017-Apr-21 07:57N 49°07' W 123°43'0 0.9
2017-Apr-21 07:24N 49°07' W 123°43'2 3.6
2017-Apr-21 06:59N 49°05' W 123°42'2 3.5
2017-Apr-21 06:29N 49°04' W 123°40'2 3.6
2017-Apr-21 05:55N 49°02' W 123°39'2 3.5
2017-Apr-21 05:28N 49°01' W 123°37'2 3.6
2017-Apr-21 04:59N 48°59' W 123°36'2 3.8
2017-Apr-21 04:30N 48°58' W 123°34'3 4.0
2017-Apr-21 03:52N 48°56' W 123°31'1 3.8
2017-Apr-21 03:29N 48°55' W 123°30'2 3.7
2017-Apr-21 02:59N 48°54' W 123°28'2 3.7
2017-Apr-21 02:30N 48°53' W 123°26'2 3.6
2017-Apr-21 02:00N 48°52' W 123°24'2 3.2
2017-Apr-21 01:26N 48°50' W 123°22'1 3.3
2017-Apr-21 01:00N 48°50' W 123°20'2 4.3
2017-Apr-21 00:30N 48°49' W 123°17'2 3.8
2017-Apr-21 00:00N 48°48' W 123°14'2 3.7
2017-Apr-20 23:30N 48°46' W 123°12'2 3.5
2017-Apr-20 23:00N 48°45' W 123°10'2 3.1
2017-Apr-20 22:30N 48°44' W 123°09'2 4.0
2017-Apr-20 22:00N 48°43' W 123°06'2 3.6
2017-Apr-20 21:30N 48°42' W 123°05'2 3.8
2017-Apr-20 21:00N 48°40' W 123°03'2 3.4
2017-Apr-20 20:30N 48°38' W 123°02'2 3.5
2017-Apr-20 20:00N 48°37' W 123°02'2 3.5
2017-Apr-20 19:30N 48°35' W 122°60'2 3.5
2017-Apr-20 19:00N 48°36' W 122°57'2 3.3
2017-Apr-20 18:30N 48°35' W 122°55'2 3.6
2017-Apr-20 18:00N 48°35' W 122°52'2 3.6
2017-Apr-20 17:30N 48°33' W 122°51'2 3.4
2017-Apr-20 17:00N 48°32' W 122°49'1 3.0
2017-Apr-20 16:30N 48°32' W 122°47'2 3.1
2017-Apr-20 16:00N 48°31' W 122°45'1 3.0
2017-Apr-20 15:30N 48°30' W 122°44'1 2.8
2017-Apr-20 15:00N 48°28' W 122°43'2 3.6
2017-Apr-20 14:29N 48°26' W 122°43'3 3.5
2017-Apr-20 13:30N 48°24' W 122°39'1 1.8
2017-Apr-20 13:00N 48°24' W 122°37'1 2.2
2017-Apr-20 12:30N 48°25' W 122°36'1 0.3
2017-Apr-20 09:34N 48°25' W 122°35'0 0.0
2017-Apr-20 09:30N 48°25' W 122°35'2 0.7
2017-Apr-20 06:11N 48°23' W 122°35'2 4.2
2017-Apr-20 05:41N 48°21' W 122°33'1 4.2
2017-Apr-20 05:28N 48°20' W 122°32'2 4.3
2017-Apr-20 04:58N 48°19' W 122°30'2 3.9
2017-Apr-20 04:29N 48°17' W 122°30'8 3.4
2017-Apr-20 02:16N 48°10' W 122°33'1 4.1
2017-Apr-20 02:00N 48°09' W 122°32'5 4.0
2017-Apr-20 00:51N 48°05' W 122°27'2 4.0
2017-Apr-20 00:23N 48°04' W 122°25'2 4.1
2017-Apr-19 23:59N 48°03' W 122°23'2 3.9
2017-Apr-19 23:29N 48°02' W 122°21'2 4.0
2017-Apr-19 22:59N 48°01' W 122°18'2 3.8
2017-Apr-19 22:30N 47°60' W 122°16'2 3.8
2017-Apr-19 22:00N 47°59' W 122°14'1 1.1
2017-Apr-19 21:29N 47°59' W 122°13'0 0.1
2017-Apr-19 21:00N 47°59' W 122°13'0 0.2
2017-Apr-19 20:27N 47°59' W 122°13'0 0.0
2017-Apr-19 20:00N 47°59' W 122°13'0 0.0
2017-Apr-19 19:30N 47°59' W 122°13'0 0.0
2017-Apr-19 19:00N 47°59' W 122°13'0 0.0
2017-Apr-19 18:27N 47°59' W 122°13'1 1.7
2017-Apr-19 18:00N 47°59' W 122°14'  

Dump ship's entire track history